Time;durP1;ratioP1;P1;durP2;ratioP2;P2;SDS_P1;SDS_P2;PMS_P1;PMS_P2;Temp;Humidity;BMP_temperature;BMP_pressure;BME280_temperature;BME280_humidity;BME280_pressure;Samples;Min_cycle;Max_cycle;Signal;HPM_P1;HPM_P2
2022/10/09 06:23:34;;;;;;;28.98;11.70;;;;;;;3.35;95.28;99022.84;5038929;28;20394;-53
2022/10/09 06:26:03;;;;;;;23.65;10.48;;;;;;;3.36;94.66;99018.50;5023657;28;20034;-55
2022/10/09 06:28:29;;;;;;;19.92;8.95;;;;;;;3.50;94.31;99019.81;5049637;28;20023;-52
2022/10/09 06:31:03;;;;;;;28.60;10.32;;;;;;;3.52;93.10;99018.06;5005125;28;20060;-55
2022/10/09 06:33:30;;;;;;;17.50;8.52;;;;;;;3.53;94.12;99016.31;5054108;28;20432;-54
2022/10/09 06:36:25;;;;;;;19.42;9.32;;;;;;;3.70;93.28;99023.63;5019961;28;20477;-54
2022/10/09 06:38:51;;;;;;;16.27;8.30;;;;;;;3.81;93.41;99024.16;5057537;28;21624;-54
2022/10/09 06:41:18;;;;;;;14.50;7.10;;;;;;;3.85;93.16;99030.13;4997565;28;20030;-60
2022/10/09 06:43:47;;;;;;;13.55;7.15;;;;;;;3.94;93.65;99027.28;5010866;28;20164;-53
2022/10/09 06:46:13;;;;;;;14.73;7.20;;;;;;;3.98;93.11;99023.69;5059982;28;20026;-53
2022/10/09 06:48:38;;;;;;;12.95;6.68;;;;;;;4.22;92.23;99019.53;5056099;28;20038;-54
2022/10/09 06:51:08;;;;;;;14.18;7.55;;;;;;;4.29;91.60;99028.84;5007835;28;20025;-54
2022/10/09 06:53:35;;;;;;;14.55;7.35;;;;;;;4.36;91.81;99027.75;5060677;28;20122;-59
2022/10/09 06:56:00;;;;;;;15.57;7.60;;;;;;;4.43;91.77;99026.66;5019920;28;20030;-58
2022/10/09 06:58:26;;;;;;;16.00;7.95;;;;;;;4.38;92.03;99038.94;5026354;28;20030;-60
2022/10/09 07:01:13;;;;;;;17.02;7.60;;;;;;;4.47;93.17;99032.63;5054296;28;20038;-59
2022/10/09 07:03:40;;;;;;;13.65;7.38;;;;;;;4.54;95.30;99034.13;4985754;28;20038;-60
2022/10/09 07:06:09;;;;;;;16.85;8.35;;;;;;;4.71;93.32;99031.00;5029501;28;20024;-54
2022/10/09 07:08:35;;;;;;;16.13;8.18;;;;;;;4.73;91.14;99034.41;5021726;28;20074;-55
2022/10/09 07:11:07;;;;;;;17.05;8.80;;;;;;;4.75;92.35;99032.63;5059859;28;20533;-57
2022/10/09 07:13:32;;;;;;;18.75;8.93;;;;;;;4.85;92.29;99039.22;4994698;28;20026;-55
2022/10/09 07:15:58;;;;;;;18.48;9.38;;;;;;;4.98;93.57;99043.09;5059592;28;20036;-56
2022/10/09 07:18:23;;;;;;;20.42;9.55;;;;;;;5.09;93.35;99040.16;5012628;28;20038;-56
2022/10/09 07:20:48;;;;;;;18.00;9.10;;;;;;;5.35;92.51;99036.69;5011673;28;20404;-57
2022/10/09 07:23:14;;;;;;;18.02;9.45;;;;;;;5.56;91.83;99036.84;5019352;28;20036;-58
2022/10/09 07:25:39;;;;;;;17.10;8.88;;;;;;;5.40;90.83;99026.13;5057219;28;20024;-58
2022/10/09 07:28:04;;;;;;;17.77;8.95;;;;;;;5.44;92.10;99030.34;5018994;28;20477;-59
2022/10/09 07:30:30;;;;;;;19.65;9.27;;;;;;;5.27;92.90;99030.91;5039593;28;20034;-58
2022/10/09 07:32:55;;;;;;;17.85;9.57;;;;;;;5.57;92.34;99030.75;5008911;28;20036;-55
2022/10/09 07:35:20;;;;;;;18.77;8.82;;;;;;;5.74;91.46;99030.16;5031810;28;20090;-58
2022/10/09 07:37:46;;;;;;;15.30;8.07;;;;;;;5.85;91.44;99034.06;5044279;28;20058;-57
2022/10/09 07:40:11;;;;;;;16.42;9.70;;;;;;;5.95;90.17;99034.59;5009219;28;20030;-57
2022/10/09 07:42:36;;;;;;;17.67;8.63;;;;;;;6.05;90.47;99027.31;4997860;28;20396;-57
2022/10/09 07:45:02;;;;;;;18.75;9.32;;;;;;;6.11;89.73;99021.88;5035757;28;20028;-57
2022/10/09 07:47:27;;;;;;;19.90;9.75;;;;;;;6.28;89.60;99024.69;5027672;28;20036;-57
2022/10/09 07:49:53;;;;;;;20.63;10.23;;;;;;;6.34;89.49;99021.84;5000455;28;20026;-57
2022/10/09 07:52:18;;;;;;;19.17;9.43;;;;;;;6.48;89.92;99013.50;4998098;28;20018;-58
2022/10/09 07:54:43;;;;;;;18.30;9.20;;;;;;;6.58;89.12;99014.84;5040173;28;20031;-57
2022/10/09 07:57:09;;;;;;;18.30;9.05;;;;;;;6.74;89.29;99007.25;4987869;28;20032;-57
2022/10/09 07:59:34;;;;;;;17.65;8.93;;;;;;;6.90;88.74;99000.50;5022070;28;20036;-58
2022/10/09 08:01:59;;;;;;;16.95;8.95;;;;;;;7.07;88.93;98998.97;4985728;28;20024;-57
2022/10/09 08:04:25;;;;;;;19.23;9.60;;;;;;;7.23;88.12;98997.41;5036473;28;20023;-58
2022/10/09 08:06:50;;;;;;;19.73;10.05;;;;;;;7.40;88.79;98993.22;5006807;28;20034;-57
2022/10/09 08:09:16;;;;;;;18.20;9.48;;;;;;;7.57;88.32;98990.72;5045474;28;20390;-62
2022/10/09 08:11:41;;;;;;;18.27;8.98;;;;;;;7.66;87.01;98995.53;4995966;28;20099;-57
2022/10/09 08:14:08;;;;;;;16.98;8.95;;;;;;;7.80;86.35;98987.94;5025593;28;20032;-57
2022/10/09 08:16:33;;;;;;;17.65;9.48;;;;;;;8.05;85.98;98986.81;4988491;28;20038;-56
2022/10/09 08:18:59;;;;;;;19.33;8.65;;;;;;;8.19;85.37;98979.22;5027543;28;20033;-57
2022/10/09 08:21:26;;;;;;;20.73;9.25;;;;;;;8.33;84.57;98976.81;5022139;28;20532;-59
2022/10/09 08:23:53;;;;;;;18.52;8.82;;;;;;;8.42;84.23;98978.16;5041514;28;20025;-55
2022/10/09 08:26:20;;;;;;;15.00;8.90;;;;;;;8.62;84.36;98982.44;5038245;28;20084;-53
2022/10/09 08:28:52;;;;;;;19.70;9.73;;;;;;;8.79;83.73;98979.00;4984852;28;20427;-54
2022/10/09 08:31:18;;;;;;;17.35;9.48;;;;;;;8.96;82.99;98967.72;4977808;28;20022;-57
2022/10/09 08:33:43;;;;;;;18.98;8.82;;;;;;;9.15;83.27;98972.84;4983120;28;20031;-56
2022/10/09 08:36:09;;;;;;;18.02;9.57;;;;;;;9.33;82.52;98968.47;4995989;28;20049;-51
2022/10/09 08:38:35;;;;;;;17.52;8.40;;;;;;;9.51;81.68;98972.75;5034434;28;20050;-57
2022/10/09 08:41:00;;;;;;;17.58;9.15;;;;;;;9.72;81.07;98974.25;4992203;28;20052;-57
2022/10/09 08:43:34;;;;;;;17.40;8.88;;;;;;;9.93;80.06;98969.63;4998753;28;20022;-54
2022/10/09 08:46:02;;;;;;;17.10;8.20;;;;;;;10.12;79.17;98969.50;5000903;28;20020;-57
2022/10/09 08:48:27;;;;;;;16.23;8.02;;;;;;;10.31;78.37;98969.34;5018269;28;20044;-56
2022/10/09 08:50:53;;;;;;;15.95;7.57;;;;;;;10.50;77.64;98963.94;5006482;28;20029;-56
2022/10/09 08:53:38;;;;;;;15.50;8.10;;;;;;;10.76;76.92;98964.22;5031787;28;20018;-59
2022/10/09 08:56:04;;;;;;;16.85;6.82;;;;;;;10.93;76.02;98961.47;4995797;28;20038;-57
2022/10/09 08:58:32;;;;;;;14.35;6.72;;;;;;;11.09;76.16;98966.69;4994366;28;20034;-52
2022/10/09 09:01:24;;;;;;;16.27;6.80;;;;;;;11.28;74.77;98953.31;4979185;28;20389;-56
2022/10/09 09:03:56;;;;;;;13.88;5.75;;;;;;;11.50;73.93;98950.25;4990562;28;20070;-58
2022/10/09 09:06:39;;;;;;;10.95;5.47;;;;;;;11.71;73.70;98958.63;4993835;28;20026;-57
2022/10/09 09:09:19;;;;;;;11.73;5.10;;;;;;;11.87;72.81;98949.72;5007023;28;20558;-58
2022/10/09 09:11:52;;;;;;;14.00;5.80;;;;;;;12.10;71.08;98944.78;5073895;28;20117;-56
2022/10/09 09:14:23;;;;;;;11.93;5.30;;;;;;;12.26;70.21;98950.78;4978890;28;20037;-56
2022/10/09 09:17:23;;;;;;;12.07;5.20;;;;;;;12.48;69.92;98944.13;5017181;28;20099;-56
2022/10/09 09:20:21;;;;;;;15.88;4.93;;;;;;;12.72;68.74;98947.81;5049365;28;20024;-55
2022/10/09 09:22:47;;;;;;;12.30;4.60;;;;;;;12.91;67.85;98942.19;5041471;28;20110;-56
2022/10/09 09:25:18;;;;;;;11.75;4.90;;;;;;;13.08;67.49;98941.06;5002151;28;20597;-52
2022/10/09 09:27:44;;;;;;;13.57;4.40;;;;;;;13.28;66.90;98939.72;5042485;28;20075;-58
2022/10/09 09:30:12;;;;;;;24.80;12.00;;;;;;;13.45;65.79;98938.56;5002346;28;20034;-54
2022/10/09 09:32:44;;;;;;;13.30;5.32;;;;;;;13.66;65.08;98934.47;4989169;28;20022;-58
2022/10/09 09:35:20;;;;;;;;;;;;;;;13.85;63.79;98933.19;4978509;28;20030;-58
2022/10/09 09:37:45;;;;;;;9.75;3.97;;;;;;;14.11;63.12;98928.66;5041249;28;20000;-59
2022/10/09 09:40:13;;;;;;;13.02;4.35;;;;;;;14.32;62.17;98929.78;4985208;28;20106;-60
2022/10/09 09:42:39;;;;;;;12.48;4.15;;;;;;;14.48;61.11;98914.50;5038031;28;20020;-61
2022/10/09 09:45:06;;;;;;;9.68;3.97;;;;;;;14.60;61.09;98914.59;5004059;28;20033;-60
2022/10/09 09:47:33;;;;;;;10.55;5.13;;;;;;;14.71;59.35;98910.19;5038998;28;20399;-57
2022/10/09 09:50:00;;;;;;;12.32;5.80;;;;;;;14.84;59.00;98906.66;5006800;28;20025;-60
2022/10/09 09:52:27;;;;;;;8.40;3.80;;;;;;;15.12;56.35;98905.41;5036317;28;20020;-60
2022/10/09 09:54:55;;;;;;;8.00;3.88;;;;;;;15.43;56.02;98904.72;4975478;28;20035;-58
2022/10/09 09:57:27;;;;;;;9.48;3.92;;;;;;;15.81;54.98;98900.09;5028934;28;20085;-58
2022/10/09 09:59:53;;;;;;;7.78;3.42;;;;;;;16.14;54.21;98894.75;5000937;28;20492;-58
2022/10/09 10:02:22;;;;;;;8.48;3.88;;;;;;;16.42;51.74;98892.53;5030908;28;20014;-58
2022/10/09 10:04:58;;;;;;;6.68;2.63;;;;;;;16.67;50.05;98893.16;5013205;28;20028;-59
2022/10/09 10:07:31;;;;;;;17.73;9.48;;;;;;;17.03;49.61;98883.94;5006867;28;20393;-58
2022/10/09 10:10:08;;;;;;;17.63;8.07;;;;;;;17.29;49.02;98874.63;5007761;28;20024;-58
2022/10/09 10:12:41;;;;;;;24.08;12.57;;;;;;;17.63;47.91;98874.38;5021777;28;20018;-56
2022/10/09 10:15:19;;;;;;;18.45;8.52;;;;;;;17.74;46.25;98866.31;5004299;28;20028;-59
2022/10/09 10:17:44;;;;;;;11.77;5.53;;;;;;;17.92;44.94;98863.03;4993756;28;20028;-59
2022/10/09 10:20:13;;;;;;;14.63;8.23;;;;;;;17.95;45.84;98854.81;4985108;28;20032;-59
2022/10/09 10:22:38;;;;;;;20.73;13.45;;;;;;;18.08;45.05;98863.38;5022850;28;20085;-58
2022/10/09 10:25:04;;;;;;;12.00;5.85;;;;;;;18.34;44.87;98858.38;4995060;28;20026;-57
2022/10/09 10:27:34;;;;;;;11.65;5.50;;;;;;;18.60;43.48;98861.31;5041465;28;20022;-59
2022/10/09 10:30:20;;;;;;;8.25;4.07;;;;;;;18.83;42.40;98858.41;5001497;28;20110;-57
2022/10/09 10:32:59;;;;;;;7.78;3.30;;;;;;;19.19;42.44;98852.31;5011659;28;20137;-58
2022/10/09 10:35:33;;;;;;;7.18;3.00;;;;;;;19.37;41.43;98846.22;4986814;28;20035;-57
2022/10/09 10:38:21;;;;;;;10.10;3.50;;;;;;;19.49;40.04;98853.06;5021307;28;20049;-58
2022/10/09 10:41:26;;;;;;;7.18;3.20;;;;;;;19.57;38.47;98847.00;5048558;28;20121;-57
2022/10/09 10:44:01;;;;;;;6.55;2.35;;;;;;;19.58;38.17;98843.34;4971858;28;20489;-57
2022/10/09 10:46:40;;;;;;;7.72;4.00;;;;;;;19.79;38.65;98840.50;5008462;28;20038;-59
2022/10/09 10:49:06;;;;;;;7.28;3.75;;;;;;;19.85;37.88;98843.38;4979308;28;20144;-57
2022/10/09 10:51:40;;;;;;;13.75;7.85;;;;;;;19.90;37.43;98833.16;4978254;28;20105;-57
2022/10/09 10:54:09;;;;;;;8.95;5.13;;;;;;;20.09;37.96;98837.50;5024059;28;20039;-55
2022/10/09 10:56:38;;;;;;;13.55;8.25;;;;;;;20.27;37.04;98828.72;5025217;28;20384;-55
2022/10/09 10:59:06;;;;;;;7.78;3.45;;;;;;;20.52;36.98;98827.97;5003289;28;20068;-56
2022/10/09 11:02:27;;;;;;;23.13;11.52;;;;;;;20.53;36.15;98829.63;5038760;28;20172;-56
2022/10/09 11:05:21;;;;;;;6.80;3.10;;;;;;;20.46;36.29;98817.06;5004872;28;20525;-54
2022/10/09 11:07:59;;;;;;;8.40;6.00;;;;;;;20.72;36.49;98819.81;4998689;28;20468;-58
2022/10/09 11:11:15;;;;;;;5.88;3.10;;;;;;;20.63;35.34;98817.06;5027092;28;20094;-57
2022/10/09 11:13:46;;;;;;;6.65;2.38;;;;;;;20.82;35.40;98809.91;5028284;28;20041;-58
2022/10/09 11:16:42;;;;;;;6.80;2.47;;;;;;;20.92;35.05;98805.31;5022298;28;20038;-55
2022/10/09 11:19:37;;;;;;;5.38;1.90;;;;;;;20.74;35.17;98801.81;5024337;28;20506;-57
2022/10/09 11:22:22;;;;;;;6.03;2.22;;;;;;;20.76;35.02;98799.84;5028421;28;20025;-58
2022/10/09 11:25:09;;;;;;;6.60;2.33;;;;;;;20.84;34.30;98795.41;5012765;28;20040;-57
2022/10/09 11:27:38;;;;;;;12.48;9.18;;;;;;;21.05;33.37;98791.53;5029739;28;20052;-57
2022/10/09 11:30:08;;;;;;;89.38;30.67;;;;;;;21.24;33.61;98779.81;5014455;28;20632;-56
2022/10/09 11:32:58;;;;;;;134.27;38.75;;;;;;;21.37;33.65;98780.25;4991079;28;20523;-57
2022/10/09 11:35:28;;;;;;;30.63;11.20;;;;;;;21.48;35.68;98771.94;5029491;28;20048;-58
2022/10/09 11:38:03;;;;;;;8.55;3.78;;;;;;;21.17;34.57;98770.78;5014599;28;20029;-57
2022/10/09 11:40:34;;;;;;;6.13;2.33;;;;;;;21.34;34.08;98759.22;5011518;28;20034;-57
2022/10/09 11:43:18;;;;;;;6.18;2.67;;;;;;;21.56;33.97;98757.78;5007283;28;20033;-56
2022/10/09 11:45:59;;;;;;;5.68;2.10;;;;;;;21.58;34.09;98749.66;4997869;28;20042;-57
2022/10/09 11:48:59;;;;;;;3.97;2.10;;;;;;;21.56;33.98;98750.63;5002623;28;20039;-60
2022/10/09 11:51:30;;;;;;;6.68;2.30;;;;;;;21.90;33.33;98749.72;4989475;28;20038;-58
2022/10/09 11:53:55;;;;;;;;;;;;;;;21.95;33.43;98739.34;5000756;28;20034;-58
2022/10/09 11:56:28;;;;;;;8.50;2.20;;;;;;;21.96;32.74;98742.88;5025173;28;19918;-57
2022/10/09 11:59:03;;;;;;;5.90;2.00;;;;;;;22.00;32.25;98734.38;5003959;28;20371;-56
2022/10/09 12:01:32;;;;;;;6.05;1.80;;;;;;;22.16;32.16;98732.72;5037253;28;20102;-58
2022/10/09 12:04:05;;;;;;;4.07;1.88;;;;;;;22.16;32.89;98730.06;4972728;28;20109;-55
2022/10/09 12:06:30;;;;;;;10.93;2.80;;;;;;;22.26;32.08;98725.38;4989795;28;20030;-56
2022/10/09 12:09:23;;;;;;;5.53;2.15;;;;;;;22.51;32.55;98721.72;4988576;28;20022;-56
2022/10/09 12:12:14;;;;;;;5.32;2.13;;;;;;;22.57;32.03;98722.88;5002790;28;20494;-56
2022/10/09 12:14:40;;;;;;;5.82;2.20;;;;;;;22.45;32.77;98710.88;5044226;28;20046;-54
2022/10/09 12:17:30;;;;;;;6.70;2.10;;;;;;;22.25;33.06;98710.38;5032133;28;20111;-55
2022/10/09 12:20:03;;;;;;;7.10;2.70;;;;;;;22.31;33.20;98704.38;4995437;28;20071;-52
2022/10/09 12:22:30;;;;;;;9.88;2.58;;;;;;;22.31;32.27;98709.72;5027669;28;20412;-54
2022/10/09 12:25:04;;;;;;;6.95;2.40;;;;;;;22.43;32.08;98703.00;5000864;28;20473;-54
2022/10/09 12:27:33;;;;;;;5.25;2.05;;;;;;;22.55;31.05;98694.66;5010974;28;20154;-56
2022/10/09 12:30:02;;;;;;;6.60;2.00;;;;;;;22.79;31.37;98691.94;4998435;28;20498;-55
2022/10/09 12:32:29;;;;;;;5.25;2.00;;;;;;;22.62;32.26;98684.94;5059178;28;20034;-55
2022/10/09 12:34:55;;;;;;;5.22;2.10;;;;;;;22.96;31.19;98682.88;5019545;28;20041;-57
2022/10/09 12:37:21;;;;;;;5.00;2.25;;;;;;;23.12;30.46;98676.63;5004095;28;20020;-55
2022/10/09 12:39:47;;;;;;;4.95;2.10;;;;;;;23.45;30.59;98684.50;5035035;28;20035;-56
2022/10/09 12:42:21;;;;;;;4.35;1.95;;;;;;;23.38;30.41;98688.88;5007872;28;20030;-55
2022/10/09 12:44:47;;;;;;;5.25;2.00;;;;;;;23.63;29.69;98674.34;4984692;28;20474;-54
2022/10/09 12:47:28;;;;;;;5.53;2.00;;;;;;;23.56;30.73;98672.56;5039117;28;20034;-54
2022/10/09 12:50:17;;;;;;;4.88;2.10;;;;;;;23.72;30.30;98672.50;5010714;28;20025;-56
2022/10/09 12:52:54;;;;;;;5.30;2.10;;;;;;;23.68;30.44;98668.50;5047255;28;20024;-56
2022/10/09 12:55:25;;;;;;;5.18;2.17;;;;;;;23.18;30.42;98659.03;5019870;28;20529;-56
2022/10/09 12:57:51;;;;;;;;;;;;;;;23.00;30.55;98658.47;5032183;28;20118;-53
2022/10/09 13:00:16;;;;;;;6.00;2.10;;;;;;;22.81;31.83;98657.81;5043560;28;19910;-57
2022/10/09 13:02:41;;;;;;;4.25;1.90;;;;;;;22.89;32.40;98649.78;5003089;28;20026;-56
2022/10/09 13:05:07;;;;;;;8.38;2.53;;;;;;;22.69;30.88;98653.84;5041386;28;20029;-56
2022/10/09 13:07:32;;;;;;;11.38;3.28;;;;;;;22.45;31.10;98644.88;5027407;28;20026;-56
2022/10/09 13:10:19;;;;;;;6.75;2.35;;;;;;;22.26;31.83;98637.22;4995390;28;20030;-57
2022/10/09 13:12:52;;;;;;;3.83;1.85;;;;;;;23.27;30.52;98641.94;4983203;28;20122;-56
2022/10/09 13:15:32;;;;;;;7.90;2.15;;;;;;;24.14;29.13;98633.66;5007980;28;20026;-56
2022/10/09 13:17:57;;;;;;;3.38;1.80;;;;;;;23.06;29.96;98623.00;4983817;28;20033;-58
2022/10/09 13:20:26;;;;;;;5.38;1.73;;;;;;;22.69;30.68;98627.94;5033015;28;20019;-56
2022/10/09 13:22:59;;;;;;;4.15;1.77;;;;;;;22.57;31.18;98633.81;5030872;28;20110;-55
2022/10/09 13:25:34;;;;;;;4.10;1.75;;;;;;;23.65;29.15;98626.00;5023899;28;20034;-55
2022/10/09 13:28:00;;;;;;;5.13;2.00;;;;;;;26.11;25.19;98619.41;5001552;28;20433;-59
2022/10/09 13:30:27;;;;;;;5.88;2.03;;;;;;;26.83;25.17;98617.41;5001284;28;20052;-56
2022/10/09 13:32:52;;;;;;;64.38;37.40;;;;;;;26.23;25.44;98611.66;5043025;28;20010;-57
2022/10/09 13:35:17;;;;;;;10.02;4.57;;;;;;;25.31;26.48;98609.72;4997126;28;20091;-57
2022/10/09 13:37:43;;;;;;;5.30;2.33;;;;;;;25.21;26.88;98610.03;5008896;28;20030;-56
2022/10/09 13:40:16;;;;;;;4.43;1.88;;;;;;;24.89;26.86;98600.53;5058330;28;20030;-57
2022/10/09 13:42:49;;;;;;;6.20;2.38;;;;;;;24.56;27.48;98602.75;5043804;28;20397;-57
2022/10/09 13:45:14;;;;;;;5.03;2.30;;;;;;;24.10;28.42;98608.25;5000147;28;20087;-57
2022/10/09 13:47:40;;;;;;;6.70;2.15;;;;;;;24.22;27.05;98604.09;5005942;28;20101;-56
2022/10/09 13:50:05;;;;;;;7.13;2.92;;;;;;;23.69;27.62;98598.69;5004236;28;20030;-57
2022/10/09 13:52:31;;;;;;;10.68;2.67;;;;;;;23.62;28.29;98600.41;5006394;28;20539;-57
2022/10/09 13:54:56;;;;;;;9.35;2.63;;;;;;;23.57;28.84;98593.91;5002439;28;20378;-56
2022/10/09 13:57:21;;;;;;;7.72;3.35;;;;;;;23.34;29.05;98591.22;5031308;28;20052;-56
2022/10/09 13:59:47;;;;;;;5.68;3.00;;;;;;;23.22;29.28;98588.94;4976239;28;20026;-55
2022/10/09 14:02:12;;;;;;;4.38;2.03;;;;;;;23.19;29.70;98592.00;5043478;28;20017;-55
2022/10/09 14:04:37;;;;;;;4.47;1.90;;;;;;;23.37;29.92;98582.84;5007422;28;20034;-55
2022/10/09 14:07:03;;;;;;;4.35;1.85;;;;;;;23.06;30.30;98588.22;5000182;28;20022;-56
2022/10/09 14:09:28;;;;;;;4.88;1.92;;;;;;;23.00;29.83;98587.06;5076526;28;20024;-54
2022/10/09 14:11:53;;;;;;;4.47;1.88;;;;;;;23.02;30.12;98586.88;5025596;28;20491;-56
2022/10/09 14:14:21;;;;;;;4.15;1.80;;;;;;;22.79;29.79;98584.13;5006716;28;20036;-59
2022/10/09 14:16:46;;;;;;;5.75;2.00;;;;;;;22.60;30.38;98578.19;5008699;28;20539;-54
2022/10/09 14:19:11;;;;;;;5.78;1.95;;;;;;;22.41;30.28;98576.75;5021690;28;20023;-56
2022/10/09 14:21:37;;;;;;;5.88;2.13;;;;;;;22.37;31.06;98570.09;5007269;28;20036;-56
2022/10/09 14:24:02;;;;;;;12.35;5.88;;;;;;;22.35;31.58;98566.75;5004505;28;20040;-57
2022/10/09 14:26:28;;;;;;;6.57;2.15;;;;;;;22.39;32.61;98562.72;5012199;28;20024;-56
2022/10/09 14:28:53;;;;;;;4.65;1.92;;;;;;;22.22;32.06;98563.75;5043704;28;20037;-57
2022/10/09 14:31:19;;;;;;;3.53;1.70;;;;;;;22.13;32.45;98573.63;5000763;28;20445;-57
2022/10/09 14:33:44;;;;;;;5.68;2.55;;;;;;;22.09;32.76;98560.75;5022209;28;20033;-58
2022/10/09 14:36:15;;;;;;;5.25;1.92;;;;;;;22.03;33.10;98568.47;5034058;28;20148;-55
2022/10/09 14:38:40;;;;;;;4.75;2.10;;;;;;;21.85;34.05;98559.81;4994382;28;20027;-52
2022/10/09 14:41:06;;;;;;;5.45;2.10;;;;;;;21.95;34.19;98560.44;5036786;28;20090;-57
2022/10/09 14:43:31;;;;;;;7.10;3.50;;;;;;;21.77;34.07;98562.47;5020071;28;20030;-54
2022/10/09 14:46:11;;;;;;;5.50;2.30;;;;;;;23.01;31.66;98556.63;5005536;28;20026;-58
2022/10/09 14:48:37;;;;;;;7.80;2.70;;;;;;;27.26;25.41;98556.13;5075205;28;20032;-57
2022/10/09 14:51:09;;;;;;;4.93;2.20;;;;;;;31.90;20.30;98554.88;5002361;28;20040;-57
2022/10/09 14:53:35;;;;;;;4.82;2.00;;;;;;;30.27;21.10;98553.84;5046420;28;20033;-57
2022/10/09 14:56:05;;;;;;;5.15;1.90;;;;;;;31.36;20.23;98550.50;5004005;28;20026;-56
2022/10/09 14:58:31;;;;;;;5.00;1.98;;;;;;;28.67;22.97;98546.97;4993661;28;20033;-54
2022/10/09 15:00:56;;;;;;;5.68;2.28;;;;;;;26.09;25.36;98543.53;4981756;28;20481;-55
2022/10/09 15:03:22;;;;;;;5.85;2.58;;;;;;;25.20;27.06;98546.63;4988363;28;20018;-57
2022/10/09 15:05:47;;;;;;;4.07;1.85;;;;;;;26.59;25.20;98544.25;4996339;28;20034;-56
2022/10/09 15:08:13;;;;;;;4.68;2.20;;;;;;;26.57;24.74;98545.50;5004915;28;20034;-55
2022/10/09 15:10:38;;;;;;;6.10;2.17;;;;;;;26.28;25.67;98542.78;5035840;28;20037;-53
2022/10/09 15:13:03;;;;;;;3.83;1.60;;;;;;;26.08;25.79;98541.84;5046156;28;20504;-57
2022/10/09 15:15:29;;;;;;;5.20;2.20;;;;;;;26.68;24.95;98536.84;5000119;28;20057;-57
2022/10/09 15:17:54;;;;;;;4.72;2.13;;;;;;;24.95;26.98;98532.72;4990322;28;20045;-57
2022/10/09 15:20:19;;;;;;;5.07;2.08;;;;;;;24.02;28.36;98534.13;5006931;28;20026;-57
2022/10/09 15:22:45;;;;;;;4.32;2.00;;;;;;;23.18;29.60;98530.63;5070075;28;20412;-56
2022/10/09 15:25:10;;;;;;;5.22;1.95;;;;;;;22.27;30.86;98527.53;5023028;28;20031;-57
2022/10/09 15:27:35;;;;;;;6.38;2.60;;;;;;;21.75;32.26;98529.78;5083295;28;20433;-56
2022/10/09 15:30:01;;;;;;;7.88;3.03;;;;;;;21.27;32.70;98526.06;4993698;28;20034;-55
2022/10/09 15:32:26;;;;;;;7.93;3.20;;;;;;;20.83;33.72;98529.81;5009738;28;20469;-55
2022/10/09 15:34:52;;;;;;;7.10;2.65;;;;;;;20.03;35.33;98525.78;5002680;28;20485;-52
2022/10/09 15:37:17;;;;;;;6.63;2.05;;;;;;;19.40;36.43;98532.09;5011784;28;20030;-55
2022/10/09 15:39:42;;;;;;;6.65;2.47;;;;;;;18.96;37.72;98530.19;5001666;28;20037;-56
2022/10/09 15:42:08;;;;;;;6.97;2.15;;;;;;;18.71;39.15;98531.72;5094590;28;20026;-56
2022/10/09 15:44:33;;;;;;;6.43;2.78;;;;;;;18.30;40.32;98518.91;5003548;28;20030;-53
2022/10/09 15:46:58;;;;;;;6.43;2.80;;;;;;;18.09;40.14;98517.31;5031072;28;20386;-53
2022/10/09 15:49:24;;;;;;;5.28;2.50;;;;;;;17.86;41.15;98516.00;5034571;28;20028;-56
2022/10/09 15:51:49;;;;;;;6.35;2.60;;;;;;;17.39;41.61;98511.44;5016456;28;20476;-57
2022/10/09 15:54:15;;;;;;;5.28;2.33;;;;;;;17.16;42.18;98513.53;5034048;28;20026;-56
2022/10/09 15:56:41;;;;;;;7.60;2.60;;;;;;;16.95;42.64;98503.06;4999189;28;20030;-56
2022/10/09 15:59:09;;;;;;;7.78;2.90;;;;;;;16.71;43.25;98514.00;5029012;28;20115;-56
2022/10/09 16:01:34;;;;;;;8.73;3.28;;;;;;;16.51;43.47;98514.94;5037074;28;20026;-53
2022/10/09 16:04:00;;;;;;;7.90;3.20;;;;;;;16.25;44.86;98502.19;5031859;28;20119;-58
2022/10/09 16:06:25;;;;;;;8.43;3.42;;;;;;;16.12;45.13;98507.69;5007003;28;20030;-56
2022/10/09 16:08:53;;;;;;;8.93;4.90;;;;;;;15.97;45.95;98503.75;5067717;28;20038;-56
2022/10/09 16:11:19;;;;;;;11.00;5.07;;;;;;;15.82;45.89;98508.50;5040483;28;20034;-57
2022/10/09 16:13:45;;;;;;;14.07;7.45;;;;;;;15.66;46.15;98502.88;4988784;28;20022;-57
2022/10/09 16:16:16;;;;;;;13.82;7.22;;;;;;;15.46;47.32;98495.75;5020407;28;20028;-53
2022/10/09 16:18:41;;;;;;;13.70;7.20;;;;;;;15.32;47.81;98508.31;5051442;28;20039;-53
2022/10/09 16:21:08;;;;;;;13.45;5.97;;;;;;;15.10;48.25;98509.22;5009649;28;20078;-56
2022/10/09 16:23:33;;;;;;;12.50;5.25;;;;;;;14.87;49.60;98510.31;5004142;28;20072;-55
2022/10/09 16:25:59;;;;;;;12.32;4.82;;;;;;;14.70;50.70;98511.66;5018909;28;20429;-56
2022/10/09 16:28:25;;;;;;;10.57;4.82;;;;;;;14.46;51.62;98499.44;5075068;28;20052;-55
2022/10/09 16:30:50;;;;;;;9.77;4.13;;;;;;;14.27;52.45;98501.84;5044453;28;20021;-55
2022/10/09 16:33:15;;;;;;;7.15;3.78;;;;;;;14.09;52.95;98492.75;5000390;28;20018;-58
2022/10/09 16:35:41;;;;;;;8.93;3.63;;;;;;;13.86;52.94;98500.63;4985882;28;20418;-56
2022/10/09 16:38:06;;;;;;;9.45;3.40;;;;;;;13.68;53.61;98494.16;5038684;28;20028;-56
2022/10/09 16:40:32;;;;;;;9.65;3.30;;;;;;;13.57;53.59;98497.63;5041670;28;20032;-56
2022/10/09 16:43:00;;;;;;;6.45;2.63;;;;;;;13.40;54.26;98496.25;5010396;28;20045;-55
2022/10/09 16:45:26;;;;;;;6.72;2.70;;;;;;;13.30;54.92;98496.09;5035594;28;20028;-56
2022/10/09 16:47:54;;;;;;;6.47;2.65;;;;;;;13.19;55.35;98503.09;5019895;28;20091;-56
2022/10/09 16:50:19;;;;;;;7.72;2.67;;;;;;;13.11;55.03;98500.19;5020792;28;20018;-55
2022/10/09 16:52:45;;;;;;;6.90;2.40;;;;;;;13.00;56.66;98512.34;4983427;28;20079;-59
2022/10/09 16:55:10;;;;;;;9.48;2.80;;;;;;;12.90;56.68;98502.59;4991351;28;20030;-55
2022/10/09 16:57:36;;;;;;;6.60;2.83;;;;;;;12.78;57.55;98507.81;5006144;28;20535;-56
2022/10/09 17:00:02;;;;;;;7.63;3.25;;;;;;;12.69;57.88;98511.13;5011160;28;20021;-57
2022/10/09 17:02:27;;;;;;;7.82;3.05;;;;;;;12.61;57.80;98502.09;5061289;28;20042;-57
2022/10/09 17:04:53;;;;;;;7.35;3.85;;;;;;;12.51;58.72;98499.28;5008674;28;20026;-49
2022/10/09 17:07:19;;;;;;;9.63;4.38;;;;;;;12.42;59.33;98498.19;4986567;28;20038;-52
2022/10/09 17:09:44;;;;;;;8.82;4.53;;;;;;;12.33;60.34;98506.72;5042055;28;20028;-54
2022/10/09 17:12:11;;;;;;;13.40;6.15;;;;;;;12.25;60.67;98496.75;5009443;28;20070;-53
2022/10/09 17:14:37;;;;;;;11.48;6.00;;;;;;;12.16;61.52;98502.63;4978920;28;20501;-52
2022/10/09 17:17:03;;;;;;;10.30;5.65;;;;;;;12.08;62.19;98495.28;5013490;28;20114;-55
2022/10/09 17:19:28;;;;;;;11.45;5.82;;;;;;;12.02;62.39;98494.88;5013727;28;20459;-52
2022/10/09 17:21:54;;;;;;;10.13;5.50;;;;;;;11.93;63.31;98491.09;5026061;28;20036;-52
2022/10/09 17:24:19;;;;;;;13.43;5.80;;;;;;;11.85;62.93;98496.06;5008709;28;20030;-51
2022/10/09 17:26:44;;;;;;;9.77;5.82;;;;;;;11.78;63.18;98500.03;5005226;28;20038;-54
2022/10/09 17:29:11;;;;;;;11.88;6.55;;;;;;;11.72;64.62;98500.44;5030094;28;20033;-51
2022/10/09 17:31:37;;;;;;;14.73;7.95;;;;;;;11.64;65.00;98506.22;4987255;28;20030;-52
2022/10/09 17:34:03;;;;;;;12.25;6.93;;;;;;;11.58;65.01;98502.22;5016926;28;20509;-54
2022/10/09 17:36:30;;;;;;;11.05;6.90;;;;;;;11.52;65.00;98502.63;5010647;28;20045;-51
2022/10/09 17:38:55;;;;;;;11.52;6.88;;;;;;;11.47;65.04;98504.72;5007460;28;20105;-51
2022/10/09 17:41:22;;;;;;;12.10;6.20;;;;;;;11.42;66.08;98509.44;5002113;28;20021;-50
2022/10/09 17:43:48;;;;;;;11.32;5.68;;;;;;;11.36;65.87;98502.00;5036231;28;20022;-50
2022/10/09 17:46:13;;;;;;;12.68;6.30;;;;;;;11.30;66.91;98497.97;5029677;28;20037;-60
2022/10/09 17:48:43;;;;;;;16.13;7.95;;;;;;;11.27;66.94;98497.34;5048868;28;20108;-60
2022/10/09 17:51:16;;;;;;;22.23;9.45;;;;;;;11.21;67.00;98503.00;5000066;28;20031;-60
2022/10/09 17:53:42;;;;;;;24.02;10.45;;;;;;;11.13;67.92;98496.47;5012198;28;20121;-60
2022/10/09 17:56:07;;;;;;;28.38;12.13;;;;;;;11.06;68.16;98497.81;5004218;28;20034;-60
2022/10/09 17:58:32;;;;;;;22.80;9.35;;;;;;;11.04;68.80;98504.94;5021823;28;20089;-60
2022/10/09 18:01:08;;;;;;;18.65;9.10;;;;;;;10.98;69.13;98497.50;5007700;28;20633;-60
2022/10/09 18:03:33;;;;;;;19.15;8.75;;;;;;;10.95;70.05;98497.69;4990139;28;20042;-60
2022/10/09 18:06:01;;;;;;;20.42;9.77;;;;;;;10.91;70.15;98496.22;5011315;28;20026;-59